Time;durP1;ratioP1;P1;durP2;ratioP2;P2;SDS_P1;SDS_P2;PMS_P1;PMS_P2;Temp;Humidity;BMP_temperature;BMP_pressure;BME280_temperature;BME280_humidity;BME280_pressure;Samples;Min_cycle;Max_cycle;Signal;HPM_P1;HPM_P2
2023/06/27 00:02:20;;;;;;;3.33;1.58;;;23.80;61.90;;;;;;10060477;28;20095;-59
2023/06/27 00:07:11;;;;;;;2.38;1.27;;;23.80;62.00;;;;;;10065174;28;20033;-59
2023/06/27 00:12:01;;;;;;;3.85;1.80;;;23.60;62.20;;;;;;10078747;28;20041;-59
2023/06/27 00:16:52;;;;;;;3.72;1.30;;;23.50;62.70;;;;;;10070635;28;20083;-59
2023/06/27 00:21:43;;;;;;;4.28;1.58;;;23.40;62.90;;;;;;10047389;28;20434;-60
2023/06/27 00:26:34;;;;;;;4.65;1.40;;;23.30;63.20;;;;;;10063801;28;20036;-60
2023/06/27 00:31:25;;;;;;;6.45;1.52;;;23.20;63.60;;;;;;10079734;28;20045;-60
2023/06/27 00:36:16;;;;;;;4.25;1.67;;;23.20;63.50;;;;;;10073531;28;20553;-59
2023/06/27 00:41:07;;;;;;;2.47;1.20;;;23.20;63.70;;;;;;10048413;28;20106;-59
2023/06/27 00:45:57;;;;;;;2.38;1.27;;;23.10;63.90;;;;;;10058693;28;20645;-61
2023/06/27 00:50:55;;;;;;;3.53;1.45;;;23.10;64.10;;;;;;10067340;28;20029;-59
2023/06/27 00:55:45;;;;;;;5.28;1.23;;;23.00;64.30;;;;;;10064419;28;20513;-60
2023/06/27 01:00:36;;;;;;;2.92;1.63;;;22.90;64.40;;;;;;10050660;28;20045;-60
2023/06/27 01:05:28;;;;;;;5.15;2.47;;;22.90;64.60;;;;;;10057060;28;20056;-60
2023/06/27 01:10:40;;;;;;;1.45;1.00;;;22.90;64.70;;;;;;10036689;28;20552;-60
2023/06/27 01:15:32;;;;;;;1.60;0.93;;;22.70;65.30;;;;;;10056024;28;20034;-59
2023/06/27 01:20:24;;;;;;;1.63;1.05;;;22.60;65.20;;;;;;10063108;28;20037;-60
2023/06/27 01:25:15;;;;;;;5.57;1.30;;;22.70;65.30;;;;;;10060250;28;20025;-59
2023/06/27 01:30:08;;;;;;;2.78;1.33;;;22.60;65.30;;;;;;10062972;28;20121;-59
2023/06/27 01:35:08;;;;;;;2.95;1.70;;;22.60;65.50;;;;;;10077876;28;20021;-59
2023/06/27 01:40:02;;;;;;;1.63;0.90;;;22.60;65.40;;;;;;10070721;28;20149;-60
2023/06/27 01:44:54;;;;;;;2.63;1.20;;;22.70;65.60;;;;;;10064630;28;20080;-59
2023/06/27 01:49:45;;;;;;;2.28;1.20;;;22.60;65.80;;;;;;10067567;28;20479;-59
2023/06/27 01:54:36;;;;;;;2.03;1.08;;;22.50;65.90;;;;;;10061046;28;20026;-61
2023/06/27 01:59:26;;;;;;;2.97;1.25;;;22.50;65.90;;;;;;10055201;28;20045;-58
2023/06/27 02:04:17;;;;;;;3.85;1.92;;;22.40;66.00;;;;;;10060217;28;20110;-58
2023/06/27 02:09:08;;;;;;;4.20;1.90;;;22.30;66.40;;;;;;10073990;28;20083;-59
2023/06/27 02:13:58;;;;;;;2.83;0.90;;;22.20;66.50;;;;;;10067430;28;20026;-59
2023/06/27 02:18:49;;;;;;;2.67;1.17;;;22.30;66.40;;;;;;10066256;28;20040;-59
2023/06/27 02:23:40;;;;;;;4.80;1.60;;;22.30;66.30;;;;;;10061745;28;20040;-58
2023/06/27 02:28:31;;;;;;;4.43;1.65;;;22.60;66.10;;;;;;10060030;28;20109;-59
2023/06/27 02:33:21;;;;;;;3.20;1.00;;;22.30;66.40;;;;;;10058122;28;20137;-59
2023/06/27 02:38:12;;;;;;;3.08;1.20;;;22.20;66.50;;;;;;10053374;28;20095;-59
2023/06/27 02:43:03;;;;;;;2.53;1.05;;;22.30;66.70;;;;;;10052495;28;20033;-59
2023/06/27 02:47:53;;;;;;;3.15;1.48;;;22.40;66.50;;;;;;10069567;28;20034;-59
2023/06/27 02:52:44;;;;;;;5.32;1.10;;;22.10;66.80;;;;;;10066613;28;20030;-60
2023/06/27 02:57:34;;;;;;;2.90;1.05;;;22.20;66.60;;;;;;10046732;28;20029;-59
2023/06/27 03:02:25;;;;;;;5.78;1.17;;;22.10;66.70;;;;;;10065715;28;20064;-58
2023/06/27 03:07:16;;;;;;;3.38;1.60;;;21.90;67.00;;;;;;10073560;28;20593;-57
2023/06/27 03:12:07;;;;;;;2.65;1.50;;;21.90;67.00;;;;;;10072154;28;20037;-59
2023/06/27 03:16:58;;;;;;;1.70;1.10;;;22.00;66.90;;;;;;10071313;28;20064;-59
2023/06/27 03:21:48;;;;;;;4.55;1.98;;;21.90;67.00;;;;;;10063233;28;20066;-58
2023/06/27 03:26:39;;;;;;;2.83;1.20;;;21.80;67.20;;;;;;10061257;28;20048;-59
2023/06/27 03:31:30;;;;;;;4.95;1.23;;;21.70;67.30;;;;;;10061641;28;20037;-59
2023/06/27 03:36:20;;;;;;;4.80;1.00;;;21.90;67.80;;;;;;10072156;28;20029;-59
2023/06/27 03:41:11;;;;;;;1.75;0.98;;;21.90;67.20;;;;;;10074344;28;20498;-57
2023/06/27 03:46:02;;;;;;;2.80;1.48;;;21.80;67.30;;;;;;10075708;28;20722;-61
2023/06/27 03:50:53;;;;;;;4.07;1.10;;;21.80;67.30;;;;;;10071615;28;20295;-57
2023/06/27 03:55:43;;;;;;;3.83;1.40;;;21.60;67.60;;;;;;10048601;28;20112;-58
2023/06/27 04:00:34;;;;;;;3.78;1.30;;;21.60;67.80;;;;;;10056382;28;20053;-59
2023/06/27 04:05:25;;;;;;;3.13;1.10;;;21.60;67.80;;;;;;10077261;28;20152;-59
2023/06/27 04:10:15;;;;;;;5.18;1.20;;;21.60;68.00;;;;;;10081805;28;20034;-59
2023/06/27 04:15:06;;;;;;;3.42;0.95;;;21.50;67.70;;;;;;10071047;28;20026;-55
2023/06/27 04:19:57;;;;;;;2.60;1.15;;;21.50;67.80;;;;;;10070897;28;20049;-60
2023/06/27 04:24:48;;;;;;;2.65;1.23;;;21.60;67.80;;;;;;10062990;28;20017;-58
2023/06/27 04:29:39;;;;;;;1.98;0.93;;;21.60;67.70;;;;;;10057721;28;20106;-58
2023/06/27 04:34:29;;;;;;;5.60;1.50;;;21.60;67.80;;;;;;10079132;28;20025;-56
2023/06/27 04:39:20;;;;;;;5.32;1.90;;;21.60;68.00;;;;;;10070472;28;20498;-59
2023/06/27 04:44:10;;;;;;;4.32;1.38;;;21.60;67.90;;;;;;10066363;28;20424;-57
2023/06/27 04:49:02;;;;;;;4.38;1.48;;;21.60;68.00;;;;;;10077036;28;20033;-58
2023/06/27 04:53:53;;;;;;;2.30;1.23;;;21.60;68.00;;;;;;10053280;28;20030;-57
2023/06/27 04:58:43;;;;;;;3.17;1.40;;;21.70;67.80;;;;;;10051195;28;20043;-57
2023/06/27 05:03:34;;;;;;;6.07;1.48;;;21.70;67.80;;;;;;10048427;28;20074;-58
2023/06/27 05:08:25;;;;;;;3.30;1.55;;;21.80;67.90;;;;;;10071308;28;20056;-56
2023/06/27 05:13:15;;;;;;;7.57;1.50;;;21.90;67.90;;;;;;10060562;28;20508;-54
2023/06/27 05:18:06;;;;;;;2.33;1.00;;;22.00;67.90;;;;;;10070973;28;20498;-58
2023/06/27 05:22:57;;;;;;;2.55;1.17;;;21.90;67.90;;;;;;10064429;28;20037;-54
2023/06/27 05:27:47;;;;;;;11.13;1.85;;;21.80;68.00;;;;;;10057652;28;20036;-55
2023/06/27 05:32:38;;;;;;;3.97;1.40;;;21.90;68.10;;;;;;10086392;28;20048;-57
2023/06/27 05:37:28;;;;;;;16.58;2.17;;;22.00;68.60;;;;;;10077562;28;20032;-59
2023/06/27 05:42:19;;;;;;;7.88;1.42;;;22.10;67.90;;;;;;10061140;28;20577;-57
2023/06/27 05:47:10;;;;;;;11.45;2.95;;;22.10;67.90;;;;;;10055994;28;20032;-60
2023/06/27 05:52:01;;;;;;;5.78;1.88;;;22.10;68.00;;;;;;10062291;28;20112;-58
2023/06/27 05:56:51;;;;;;;5.03;1.52;;;21.70;68.40;;;;;;10041675;28;20488;-59
2023/06/27 06:01:42;;;;;;;9.27;2.00;;;21.50;68.90;;;;;;10049425;28;20038;-59
2023/06/27 06:06:38;;;;;;;5.47;1.55;;;21.60;68.80;;;;;;10061612;28;20049;-59
2023/06/27 06:11:28;;;;;;;2.70;1.17;;;22.00;68.70;;;;;;10061962;28;20103;-56
2023/06/27 06:16:19;;;;;;;4.50;0.93;;;21.90;68.50;;;;;;10069072;28;20519;-53
2023/06/27 06:21:12;;;;;;;2.10;1.25;;;21.80;68.70;;;;;;10068765;28;20049;-53
2023/06/27 06:26:02;;;;;;;3.80;1.10;;;21.60;69.10;;;;;;10054747;28;20399;-55
2023/06/27 06:30:53;;;;;;;3.45;1.10;;;21.90;68.70;;;;;;10079841;28;20108;-54
2023/06/27 06:35:44;;;;;;;2.17;1.08;;;21.80;68.90;;;;;;10079535;28;20029;-59
2023/06/27 06:40:34;;;;;;;4.28;1.30;;;21.90;68.50;;;;;;10061375;28;20391;-58
2023/06/27 06:45:25;;;;;;;4.80;1.55;;;22.00;68.50;;;;;;10051818;28;20036;-59
2023/06/27 06:50:16;;;;;;;3.08;1.75;;;21.90;68.50;;;;;;10074778;28;20178;-59
2023/06/27 06:55:07;;;;;;;3.05;1.38;;;21.90;68.60;;;;;;10070234;28;20026;-59
2023/06/27 06:59:57;;;;;;;2.80;1.40;;;22.00;68.40;;;;;;10062634;28;20045;-59
2023/06/27 07:04:48;;;;;;;6.18;1.08;;;22.10;68.30;;;;;;10087951;28;20182;-59
2023/06/27 07:09:39;;;;;;;4.32;1.58;;;22.00;68.20;;;;;;10080300;28;20491;-60
2023/06/27 07:14:29;;;;;;;4.13;2.13;;;22.10;67.90;;;;;;10076188;28;20028;-60
2023/06/27 07:19:20;;;;;;;4.50;2.80;;;22.30;68.00;;;;;;10070335;28;20404;-57
2023/06/27 07:24:11;;;;;;;4.28;1.75;;;22.50;67.70;;;;;;10064848;28;20250;-59
2023/06/27 07:29:01;;;;;;;3.53;1.70;;;22.50;67.60;;;;;;10064907;28;20043;-61
2023/06/27 07:33:52;;;;;;;2.17;1.25;;;22.20;67.80;;;;;;10084844;28;20422;-60
2023/06/27 07:38:43;;;;;;;3.60;1.33;;;22.30;67.70;;;;;;10070634;28;20033;-61
2023/06/27 07:43:33;;;;;;;2.85;1.42;;;22.40;67.70;;;;;;10072949;28;20029;-59
2023/06/27 07:48:24;;;;;;;4.07;1.35;;;22.70;67.40;;;;;;10071476;28;20029;-57
2023/06/27 07:53:15;;;;;;;2.25;1.40;;;22.80;67.20;;;;;;10067229;28;20048;-59
2023/06/27 07:58:05;;;;;;;6.10;1.30;;;22.80;66.90;;;;;;10062759;28;20040;-60
2023/06/27 08:02:56;;;;;;;2.05;1.27;;;23.00;67.00;;;;;;10060435;28;20084;-59
2023/06/27 08:07:46;;;;;;;2.58;1.00;;;23.20;66.70;;;;;;10081225;28;20028;-59
2023/06/27 08:12:38;;;;;;;6.45;1.63;;;23.10;66.60;;;;;;10075081;28;20036;-59
2023/06/27 08:17:28;;;;;;;2.75;1.13;;;23.40;66.30;;;;;;10069434;28;20036;-60
2023/06/27 08:22:19;;;;;;;5.40;1.30;;;23.50;66.30;;;;;;10075608;28;20124;-59
2023/06/27 08:27:10;;;;;;;2.60;1.30;;;23.70;66.00;;;;;;10062095;28;20033;-59
2023/06/27 08:32:01;;;;;;;2.40;1.38;;;23.70;65.90;;;;;;10063308;28;20106;-61
2023/06/27 08:36:52;;;;;;;2.20;1.30;;;23.90;65.70;;;;;;10078839;28;20029;-61
2023/06/27 08:41:45;;;;;;;2.78;1.17;;;24.00;65.40;;;;;;10069485;28;20029;-60
2023/06/27 08:46:37;;;;;;;3.83;2.05;;;24.00;65.20;;;;;;10058489;28;20181;-61
2023/06/27 08:51:29;;;;;;;4.18;1.48;;;24.10;65.10;;;;;;10071303;28;20068;-62
2023/06/27 08:56:21;;;;;;;2.95;1.30;;;24.10;64.70;;;;;;10056218;28;20037;-59
2023/06/27 09:01:12;;;;;;;4.20;1.73;;;24.00;64.60;;;;;;10050667;28;20045;-61
2023/06/27 09:06:05;;;;;;;7.60;1.77;;;24.00;64.70;;;;;;10072416;28;20045;-61
2023/06/27 09:10:56;;;;;;;3.97;1.42;;;23.90;64.40;;;;;;10064101;28;20454;-61
2023/06/27 09:15:47;;;;;;;2.85;1.20;;;23.90;64.40;;;;;;10053867;28;20109;-61
2023/06/27 09:20:38;;;;;;;1.65;1.23;;;24.20;63.90;;;;;;10063096;28;20037;-60
2023/06/27 09:25:29;;;;;;;2.53;1.20;;;24.70;63.60;;;;;;10044158;28;20032;-62
2023/06/27 09:30:19;;;;;;;3.38;1.55;;;24.70;63.00;;;;;;10072638;28;20136;-62
2023/06/27 09:35:14;;;;;;;7.28;1.48;;;24.70;63.10;;;;;;10079483;28;20450;-60
2023/06/27 09:40:24;;;;;;;3.28;1.10;;;24.60;63.10;;;;;;10044429;28;20037;-61
2023/06/27 09:45:15;;;;;;;3.30;2.30;;;24.70;63.00;;;;;;10079148;28;20025;-60
2023/06/27 09:50:07;;;;;;;2.22;1.38;;;24.80;62.70;;;;;;10067387;28;20145;-60
2023/06/27 09:54:58;;;;;;;4.90;1.25;;;24.70;62.60;;;;;;10059842;28;20041;-60
2023/06/27 09:59:48;;;;;;;6.70;1.48;;;25.10;62.20;;;;;;10055839;28;20128;-60
2023/06/27 10:04:39;;;;;;;4.85;1.50;;;25.20;61.90;;;;;;10035548;28;20288;-59
2023/06/27 10:09:30;;;;;;;2.80;0.98;;;25.20;61.70;;;;;;10067485;28;20029;-59
2023/06/27 10:14:21;;;;;;;1.45;1.00;;;25.00;61.60;;;;;;10066743;28;20096;-59
2023/06/27 10:19:13;;;;;;;3.20;1.20;;;24.70;61.60;;;;;;10063934;28;20041;-59
2023/06/27 10:24:04;;;;;;;3.70;1.10;;;25.10;61.00;;;;;;10042426;28;20040;-58
2023/06/27 10:28:56;;;;;;;2.67;1.17;;;25.40;60.60;;;;;;10042342;28;20069;-59
2023/06/27 10:33:50;;;;;;;1.95;1.00;;;25.30;60.30;;;;;;10065010;28;20510;-61
2023/06/27 10:38:46;;;;;;;1.40;1.00;;;25.10;60.40;;;;;;10064687;28;20178;-59
2023/06/27 10:43:40;;;;;;;2.40;1.23;;;25.00;60.20;;;;;;10074509;28;20057;-59
2023/06/27 10:48:33;;;;;;;4.17;1.60;;;25.20;60.20;;;;;;10072435;28;20111;-60
2023/06/27 10:53:23;;;;;;;3.13;1.02;;;25.10;60.00;;;;;;10057760;28;20119;-61
2023/06/27 10:58:14;;;;;;;1.65;1.20;;;25.40;59.90;;;;;;10056318;28;20186;-61
2023/06/27 11:03:06;;;;;;;3.00;1.58;;;25.30;59.60;;;;;;10056114;28;20057;-58
2023/06/27 11:07:59;;;;;;;4.05;1.42;;;25.40;59.50;;;;;;10058530;28;20025;-59
2023/06/27 11:12:50;;;;;;;4.75;1.23;;;25.30;59.20;;;;;;10066020;28;20021;-59
2023/06/27 11:17:41;;;;;;;3.92;1.73;;;25.20;59.10;;;;;;10049669;28;20041;-60
2023/06/27 11:22:31;;;;;;;2.50;1.35;;;25.70;58.90;;;;;;10056129;28;20045;-60
2023/06/27 11:27:29;;;;;;;2.17;1.33;;;26.00;58.80;;;;;;10055259;28;20083;-60
2023/06/27 11:32:20;;;;;;;4.97;1.48;;;25.90;58.50;;;;;;10073783;28;20446;-60
2023/06/27 11:37:11;;;;;;;3.33;1.20;;;25.70;58.70;;;;;;10058607;28;20041;-57
2023/06/27 11:42:02;;;;;;;1.85;1.02;;;25.70;58.60;;;;;;10062583;28;20502;-58
2023/06/27 11:46:55;;;;;;;4.72;1.20;;;25.70;58.60;;;;;;10056264;28;20053;-56
2023/06/27 11:51:45;;;;;;;4.13;1.58;;;26.30;58.30;;;;;;10056793;28;20087;-58
2023/06/27 11:56:40;;;;;;;4.95;1.20;;;25.90;58.30;;;;;;10058640;28;20026;-57
2023/06/27 12:01:33;;;;;;;;;;;25.90;58.40;;;;;;10050354;28;20064;-58
2023/06/27 12:06:27;;;;;;;2.83;1.00;;;26.00;57.00;;;;;;10068919;28;19917;-58
2023/06/27 12:11:28;;;;;;;3.05;1.20;;;26.40;57.50;;;;;;10079192;28;20033;-56
2023/06/27 12:16:27;;;;;;;7.35;2.03;;;26.60;56.90;;;;;;10051262;28;20017;-58
2023/06/27 12:21:18;;;;;;;3.60;0.95;;;26.90;56.90;;;;;;10054989;28;20045;-55
2023/06/27 12:26:09;;;;;;;4.38;1.20;;;26.80;57.00;;;;;;10063147;28;20134;-57
2023/06/27 12:30:59;;;;;;;1.67;1.05;;;27.00;56.60;;;;;;10073577;28;20128;-58
2023/06/27 12:35:50;;;;;;;4.25;1.33;;;27.30;56.20;;;;;;10079762;28;20511;-59
2023/06/27 12:40:41;;;;;;;4.35;1.20;;;27.60;56.10;;;;;;10068714;28;20496;-58
2023/06/27 12:45:34;;;;;;;1.85;1.00;;;28.30;55.90;;;;;;10077365;28;20025;-59
2023/06/27 12:50:25;;;;;;;3.85;1.23;;;28.70;55.20;;;;;;10074647;28;20037;-59
2023/06/27 12:55:18;;;;;;;2.97;1.58;;;28.60;54.90;;;;;;10056427;28;20028;-60
2023/06/27 13:00:09;;;;;;;2.58;0.93;;;29.60;54.50;;;;;;10049486;28;20407;-59
2023/06/27 13:04:59;;;;;;;1.70;1.15;;;30.50;53.90;;;;;;10066524;28;20046;-59
2023/06/27 13:09:51;;;;;;;2.55;1.23;;;30.70;53.30;;;;;;10072063;28;20347;-59
2023/06/27 13:14:41;;;;;;;3.22;1.45;;;30.60;52.60;;;;;;10042606;28;20127;-58
2023/06/27 13:19:32;;;;;;;2.30;1.60;;;30.60;51.80;;;;;;10067590;28;20068;-59
2023/06/27 13:24:23;;;;;;;1.73;1.00;;;30.90;50.90;;;;;;10063389;28;20535;-59
2023/06/27 13:29:15;;;;;;;2.65;1.13;;;31.90;50.30;;;;;;10050884;28;20052;-60
2023/06/27 13:34:06;;;;;;;3.05;1.30;;;32.30;49.80;;;;;;10087171;28;20511;-58
2023/06/27 13:38:59;;;;;;;2.13;1.10;;;32.30;49.50;;;;;;10073049;28;20115;-59
2023/06/27 13:43:50;;;;;;;2.00;1.27;;;32.60;49.00;;;;;;10074215;28;20550;-59
2023/06/27 13:48:41;;;;;;;1.38;1.13;;;33.00;48.70;;;;;;10069484;28;20037;-58
2023/06/27 13:53:31;;;;;;;3.97;1.60;;;33.60;48.00;;;;;;10061626;28;20041;-59
2023/06/27 13:58:25;;;;;;;2.75;1.20;;;33.50;47.10;;;;;;10061649;28;20029;-59
2023/06/27 14:03:18;;;;;;;2.17;1.40;;;34.30;46.60;;;;;;10056654;28;20053;-59
2023/06/27 14:08:09;;;;;;;2.60;1.42;;;34.20;45.90;;;;;;10068053;28;20510;-60
2023/06/27 14:13:00;;;;;;;3.20;2.50;;;34.70;45.40;;;;;;10065605;28;20049;-59
2023/06/27 14:17:50;;;;;;;2.30;1.30;;;34.90;45.10;;;;;;10063221;28;20025;-58
2023/06/27 14:22:42;;;;;;;2.70;1.60;;;34.90;45.00;;;;;;10060285;28;20471;-61
2023/06/27 14:27:35;;;;;;;;;;;34.60;45.10;;;;;;10058559;28;20529;-60
2023/06/27 14:32:26;;;;;;;2.22;1.30;;;35.40;44.50;;;;;;10064065;28;19909;-64
2023/06/27 14:37:17;;;;;;;3.47;1.30;;;35.50;45.40;;;;;;10087904;28;20495;-58
2023/06/27 14:42:07;;;;;;;6.17;1.50;;;35.00;45.20;;;;;;10069105;28;20265;-59
2023/06/27 14:46:58;;;;;;;5.78;1.38;;;35.00;45.10;;;;;;10082536;28;20075;-59
2023/06/27 14:51:49;;;;;;;2.53;1.40;;;35.20;45.10;;;;;;10076159;28;20033;-58
2023/06/27 14:56:39;;;;;;;4.43;1.73;;;33.80;45.40;;;;;;10066241;28;20033;-58
2023/06/27 15:01:30;;;;;;;3.55;1.55;;;32.90;46.20;;;;;;10060515;28;20139;-60
2023/06/27 15:06:21;;;;;;;4.07;1.77;;;34.80;45.00;;;;;;10073805;28;20045;-59
2023/06/27 15:11:11;;;;;;;3.33;1.40;;;34.90;44.90;;;;;;10073873;28;20568;-59
2023/06/27 15:16:02;;;;;;;2.50;1.40;;;34.60;44.90;;;;;;10076905;28;20035;-59
2023/06/27 15:20:53;;;;;;;2.67;1.57;;;34.50;44.70;;;;;;10071212;28;20033;-59
2023/06/27 15:25:43;;;;;;;2.00;1.40;;;35.00;44.60;;;;;;10066993;28;20029;-59
2023/06/27 15:30:37;;;;;;;2.50;1.20;;;35.20;44.30;;;;;;10072461;28;20060;-59
2023/06/27 15:35:28;;;;;;;2.00;1.35;;;35.00;44.60;;;;;;10075443;28;20033;-59
2023/06/27 15:40:19;;;;;;;2.33;1.30;;;35.20;44.40;;;;;;10069052;28;20056;-60
2023/06/27 15:45:09;;;;;;;2.23;1.00;;;35.30;44.10;;;;;;10074417;28;20032;-59
2023/06/27 15:50:03;;;;;;;2.23;1.30;;;35.70;43.80;;;;;;10071485;28;20116;-58
2023/06/27 15:54:59;;;;;;;5.22;2.20;;;35.50;43.60;;;;;;10061912;28;20044;-59
2023/06/27 15:59:50;;;;;;;2.88;1.50;;;35.40;43.30;;;;;;10059012;28;20518;-61
2023/06/27 16:04:41;;;;;;;1.47;1.23;;;36.10;43.00;;;;;;10070673;28;20094;-61
2023/06/27 16:09:32;;;;;;;1.73;1.30;;;36.70;42.80;;;;;;10075758;28;20043;-60
2023/06/27 16:14:23;;;;;;;3.13;1.13;;;37.10;42.10;;;;;;10074935;28;20032;-61
2023/06/27 16:19:13;;;;;;;3.80;1.83;;;37.00;41.90;;;;;;10069202;28;20045;-61
2023/06/27 16:24:04;;;;;;;3.43;1.43;;;37.60;41.20;;;;;;10066244;28;20450;-61
2023/06/27 16:28:55;;;;;;;5.00;1.40;;;38.40;40.40;;;;;;10071342;28;20041;-61
2023/06/27 16:33:46;;;;;;;2.13;1.40;;;38.40;40.50;;;;;;10080497;28;20079;-61
2023/06/27 16:38:36;;;;;;;3.90;1.20;;;38.30;40.10;;;;;;10075713;28;20029;-60
2023/06/27 16:43:27;;;;;;;3.57;1.00;;;38.90;41.10;;;;;;10073228;28;20032;-61
2023/06/27 16:48:17;;;;;;;2.73;1.67;;;39.20;40.40;;;;;;10074650;28;20037;-61
2023/06/27 16:53:08;;;;;;;2.60;1.40;;;38.20;40.10;;;;;;10065133;28;20501;-61
2023/06/27 16:57:58;;;;;;;4.03;2.00;;;38.30;40.10;;;;;;10050556;28;20112;-62
2023/06/27 17:02:50;;;;;;;2.73;1.50;;;38.50;40.30;;;;;;10046543;28;20458;-63
2023/06/27 17:07:41;;;;;;;1.92;1.33;;;38.20;40.20;;;;;;10058121;28;20021;-62
2023/06/27 17:12:32;;;;;;;3.93;1.87;;;37.60;40.40;;;;;;10075637;28;20107;-62
2023/06/27 17:17:23;;;;;;;2.93;1.30;;;37.10;40.40;;;;;;10064524;28;20034;-64
2023/06/27 17:22:13;;;;;;;2.77;1.70;;;36.40;41.00;;;;;;10065167;28;20384;-60
2023/06/27 17:27:04;;;;;;;4.22;1.58;;;36.30;41.50;;;;;;10068138;28;20029;-59
2023/06/27 17:31:55;;;;;;;1.73;1.50;;;35.40;41.30;;;;;;10089178;28;20429;-61
2023/06/27 17:36:45;;;;;;;2.42;1.50;;;35.40;41.60;;;;;;10081887;28;20025;-61
2023/06/27 17:41:36;;;;;;;3.47;1.42;;;34.40;42.10;;;;;;10038325;28;20099;-60
2023/06/27 17:46:28;;;;;;;2.42;1.50;;;34.00;42.20;;;;;;10074788;28;20042;-59
2023/06/27 17:51:18;;;;;;;2.20;1.63;;;33.80;42.50;;;;;;10069536;28;20033;-59
2023/06/27 17:56:09;;;;;;;5.45;1.50;;;33.60;42.50;;;;;;10039557;28;20044;-59
2023/06/27 18:01:04;;;;;;;3.50;1.73;;;33.30;42.90;;;;;;10055794;28;20037;-60
2023/06/27 18:05:55;;;;;;;2.75;1.52;;;33.10;43.40;;;;;;10071791;28;20041;-58
2023/06/27 18:10:45;;;;;;;4.05;1.50;;;31.60;44.30;;;;;;10065437;28;20550;-58
2023/06/27 18:15:36;;;;;;;5.18;1.83;;;30.20;45.10;;;;;;10072167;28;20026;-59
2023/06/27 18:20:27;;;;;;;3.40;1.95;;;29.40;45.60;;;;;;10064305;28;20507;-60
2023/06/27 18:25:17;;;;;;;4.40;1.95;;;29.10;45.80;;;;;;10061015;28;20029;-60
2023/06/27 18:30:10;;;;;;;3.40;2.08;;;28.60;46.10;;;;;;10071014;28;20067;-61
2023/06/27 18:35:01;;;;;;;5.72;2.58;;;28.40;46.30;;;;;;10072488;28;20109;-60
2023/06/27 18:39:51;;;;;;;3.92;1.85;;;28.30;46.40;;;;;;10063029;28;20133;-61
2023/06/27 18:44:44;;;;;;;3.08;1.27;;;28.10;46.60;;;;;;10060490;28;20473;-61
2023/06/27 18:49:35;;;;;;;3.08;1.77;;;27.80;47.10;;;;;;10058725;28;20451;-60
2023/06/27 18:54:26;;;;;;;1.90;1.42;;;27.70;47.20;;;;;;10062182;28;20083;-63
2023/06/27 18:59:16;;;;;;;2.47;2.15;;;27.40;47.40;;;;;;10058778;28;20044;-62
2023/06/27 19:04:07;;;;;;;2.33;1.77;;;27.30;47.80;;;;;;10069113;28;20053;-63
2023/06/27 19:08:58;;;;;;;2.53;1.50;;;27.10;47.90;;;;;;10044048;28;20277;-60
2023/06/27 19:13:49;;;;;;;3.17;1.52;;;27.10;48.20;;;;;;10072556;28;20049;-60
2023/06/27 19:18:40;;;;;;;2.83;1.42;;;26.90;48.20;;;;;;10065599;28;20034;-61
2023/06/27 19:23:31;;;;;;;3.65;1.50;;;26.90;48.40;;;;;;10057369;28;20120;-61
2023/06/27 19:28:23;;;;;;;4.97;1.80;;;26.90;48.60;;;;;;10062899;28;20025;-62
2023/06/27 19:33:14;;;;;;;4.65;1.63;;;26.80;48.80;;;;;;10076643;28;20079;-60
2023/06/27 19:38:04;;;;;;;4.55;1.30;;;26.60;49.40;;;;;;10075617;28;20031;-60
2023/06/27 19:42:55;;;;;;;2.40;1.45;;;26.50;49.20;;;;;;10070584;28;20045;-61
2023/06/27 19:47:46;;;;;;;3.47;1.63;;;26.30;49.20;;;;;;10066232;28;20047;-61
2023/06/27 19:52:37;;;;;;;2.38;1.58;;;26.20;49.50;;;;;;10068261;28;20526;-61
2023/06/27 19:57:27;;;;;;;3.88;1.55;;;26.30;49.50;;;;;;10062128;28;20033;-60
2023/06/27 20:02:18;;;;;;;3.08;1.33;;;26.20;49.80;;;;;;10062853;28;20141;-60
2023/06/27 20:07:08;;;;;;;2.90;1.50;;;26.30;49.70;;;;;;10082389;28;20025;-59
2023/06/27 20:11:59;;;;;;;4.63;1.30;;;26.30;49.90;;;;;;10071138;28;20028;-57
2023/06/27 20:16:50;;;;;;;3.45;1.42;;;26.10;50.00;;;;;;10065389;28;20033;-61
2023/06/27 20:21:41;;;;;;;4.25;1.10;;;26.00;50.40;;;;;;10067395;28;20084;-61
2023/06/27 20:26:31;;;;;;;4.40;1.60;;;26.10;50.40;;;;;;10044540;28;20091;-62
2023/06/27 20:31:22;;;;;;;2.70;1.52;;;26.10;50.40;;;;;;10079656;28;20478;-61
2023/06/27 20:36:13;;;;;;;4.07;1.30;;;26.00;50.50;;;;;;10071993;28;20038;-61
2023/06/27 20:41:03;;;;;;;2.45;1.23;;;25.70;50.80;;;;;;10061575;28;20037;-60
2023/06/27 20:45:54;;;;;;;3.30;1.25;;;25.50;51.30;;;;;;10063709;28;20032;-61
2023/06/27 20:50:44;;;;;;;3.53;1.58;;;25.80;51.30;;;;;;10070545;28;20562;-62
2023/06/27 20:55:35;;;;;;;3.92;1.50;;;25.70;51.40;;;;;;10063458;28;20395;-61
2023/06/27 21:00:30;;;;;;;4.35;1.77;;;25.80;51.70;;;;;;10055991;28;20064;-62
2023/06/27 21:05:22;;;;;;;5.72;1.77;;;25.70;51.80;;;;;;10072966;28;20081;-62
2023/06/27 21:10:14;;;;;;;5.07;1.73;;;25.70;52.10;;;;;;10082547;28;20262;-62
2023/06/27 21:15:07;;;;;;;4.28;1.30;;;25.50;52.30;;;;;;10066853;28;20123;-61
2023/06/27 21:19:57;;;;;;;1.95;1.33;;;25.50;52.50;;;;;;10069487;28;20514;-62
2023/06/27 21:24:48;;;;;;;4.60;1.35;;;25.60;52.50;;;;;;10046076;28;20035;-62
2023/06/27 21:29:39;;;;;;;6.25;1.65;;;25.50;52.90;;;;;;10055221;28;20253;-61
2023/06/27 21:34:29;;;;;;;1.98;1.20;;;25.30;53.10;;;;;;10084367;28;20352;-63
2023/06/27 21:39:20;;;;;;;2.35;1.40;;;25.20;53.30;;;;;;10054501;28;20124;-62
2023/06/27 21:44:11;;;;;;;5.05;1.17;;;25.00;53.40;;;;;;10077333;28;20175;-62
2023/06/27 21:49:01;;;;;;;2.75;1.38;;;24.90;53.90;;;;;;10077111;28;20036;-62
2023/06/27 21:53:52;;;;;;;4.78;1.60;;;24.70;54.00;;;;;;10067523;28;20040;-61
2023/06/27 21:58:43;;;;;;;1.20;1.10;;;24.90;54.10;;;;;;10055372;28;20037;-62
2023/06/27 22:03:37;;;;;;;3.40;1.40;;;25.00;54.00;;;;;;10058232;28;20060;-60
2023/06/27 22:08:28;;;;;;;2.63;1.67;;;24.90;54.50;;;;;;10073422;28;20034;-61
2023/06/27 22:13:18;;;;;;;4.75;1.27;;;24.60;54.90;;;;;;10045448;28;20034;-61
2023/06/27 22:18:10;;;;;;;2.17;1.33;;;24.60;55.00;;;;;;10062903;28;20527;-61
2023/06/27 22:23:00;;;;;;;2.28;1.00;;;24.60;55.10;;;;;;10059463;28;20065;-61
2023/06/27 22:27:51;;;;;;;3.67;1.70;;;24.60;55.40;;;;;;10040157;28;20026;-61
2023/06/27 22:32:43;;;;;;;4.57;1.30;;;24.50;55.50;;;;;;10085354;28;20033;-61
2023/06/27 22:37:34;;;;;;;3.92;1.20;;;24.30;56.40;;;;;;10059983;28;20044;-61
2023/06/27 22:42:24;;;;;;;4.65;1.40;;;24.20;56.10;;;;;;10064219;28;20367;-61
2023/06/27 22:47:15;;;;;;;3.20;1.05;;;24.20;56.30;;;;;;10074502;28;20033;-61
2023/06/27 22:52:06;;;;;;;6.03;1.42;;;24.00;56.60;;;;;;10061325;28;20512;-61
2023/06/27 22:56:56;;;;;;;2.50;1.13;;;24.20;56.50;;;;;;10060266;28;20060;-61
2023/06/27 23:01:47;;;;;;;1.70;1.00;;;24.30;56.40;;;;;;10059305;28;20095;-60
2023/06/27 23:06:37;;;;;;;2.67;1.13;;;24.30;56.50;;;;;;10093560;28;20033;-60
2023/06/27 23:11:31;;;;;;;4.88;1.38;;;24.10;56.80;;;;;;10077104;28;20033;-60
2023/06/27 23:16:22;;;;;;;3.78;1.00;;;24.00;56.80;;;;;;10075106;28;20029;-61
2023/06/27 23:21:13;;;;;;;2.38;1.08;;;23.90;57.20;;;;;;10073895;28;20045;-61
2023/06/27 23:26:13;;;;;;;2.35;1.20;;;23.70;57.30;;;;;;10053431;28;20175;-61
2023/06/27 23:31:05;;;;;;;3.17;1.05;;;23.70;57.40;;;;;;10084923;28;20040;-61
2023/06/27 23:35:55;;;;;;;4.40;1.33;;;23.70;57.50;;;;;;10069696;28;20199;-61
2023/06/27 23:40:46;;;;;;;5.55;1.13;;;23.70;57.60;;;;;;10064611;28;20240;-61
2023/06/27 23:45:37;;;;;;;2.10;1.05;;;23.50;57.90;;;;;;10065829;28;20029;-60
2023/06/27 23:50:28;;;;;;;3.25;1.30;;;23.40;58.00;;;;;;10068775;28;20044;-60
2023/06/27 23:55:19;;;;;;;3.10;1.23;;;23.50;58.30;;;;;;10067823;28;20052;-60
